Pickerel, WI (54465)

9:52 AM CDT on August 30, 2014 (GMT -0500)
Lake Lucerne | Change Station
CLOSE
Current Station
Personal Weather Station
Location: Crandon, WI
Elevation: 1644 ft
Nearby Weather Stations

Elev 1644 ft 45.52 °N, 88.85 °W | Updated 3 minutes ago

Overcast
Overcast
63.8 °F
Feels Like 63.8 °F
N
0.0
Wind Variable Wind from SE
Gusts 0.0 mph

Today
High -- | Low -- °F
--% Chance of Precip.
Yesterday
High -- | Low -- °F
Precip. -- in
6:14 AM 7:36 PM
Waxing Crescent, 22% visible
Pressure 29.78 in
Visibility 10.0 miles
Clouds Mostly Cloudy 500 ft
Mostly Cloudy 1400 ft
Overcast 2800 ft
Dew Point 64 °F
Humidity 100%
Rainfall 0.09 in
Snow Depth Not available.
UV 1 out of 12
Pollen 1.70 out of 12
Air Quality Not available.
Flu Activity Not available.
METAR KAIG 301435Z AUTO 33006KT 10SM BKN005 BKN014 OVC028 19/18 A2978 RMK AO2 T01860178

More Conditions Fewer Conditions

Pressure 29.78 in
Visibility 10.0 miles
Clouds Mostly Cloudy 500 ft
Mostly Cloudy 1400 ft
Overcast 2800 ft
Dew Point 64 °F
Humidity 100%
Rainfall 0.09 in
Snow Depth Not available.
UV 1 out of 12
Pollen 1.70 out of 12
Air Quality Not available.
Flu Activity Not available.
METAR KAIG 301435Z AUTO 33006KT 10SM BKN005 BKN014 OVC028 19/18 A2978 RMK AO2 T01860178

More Conditions Fewer Conditions

10-Day Weather Forecast

Almanac

Astronomy

Aug. 30, 2014 Rise Set
Actual Time 6:14 AM CDT 7:36 PM CDT
Civil Twilight 5:44 AM CDT 8:07 PM CDT
Nautical Twilight 5:06 AM CDT 8:44 PM CDT
Astronomical Twilight 4:27 AM CDT 9:23 PM CDT
Moon 11:17 AM CDT 9:54 PM CDT
Length of Visible Light 14h 23m
Length of Day
13h 22m
Tomorrow will be 3m 2s shorter.
Waxing Crescent, 22% of the Moon is Illuminated
Today
Waxing Crescent
Sep 2
First Quarter
Sep 8
Full
Sep 15
Last Quarter
Sep 24
New

Today's Extremes

State Highs State Lows

Community

WunderPhotos

Upload Photos

1,748,528 photos uploaded!

WunderBlogs® & News

Nearby

Snow Depth

Station Depth Elevation
No new snow has been reported.

Earthquake Activity

City Distance Mag. Time & Date
No recent earthquake activity has been reported nearby.
Minimum magnitude displayed is 2.5.

Coastal Water Temperatures

Place Temperature
No Stations Reporting

Nearby Weather Stations